Time;durP1;ratioP1;P1;durP2;ratioP2;P2;SDS_P1;SDS_P2;PMS_P1;PMS_P2;Temp;Humidity;BMP_temperature;BMP_pressure;BME280_temperature;BME280_humidity;BME280_pressure;Samples;Min_cycle;Max_cycle;Signal;HPM_P1;HPM_P2
2023/03/31 00:00:17;;;;;;;11.60;4.88;;;16.70;99.90;;;;;;10521604;28;20123;-25
2023/03/31 00:05:23;;;;;;;13.18;4.70;;;16.80;99.90;;;;;;10507841;28;20044;-24
2023/03/31 00:10:25;;;;;;;12.57;5.47;;;16.50;99.90;;;;;;10497838;28;20473;-25
2023/03/31 00:15:27;;;;;;;13.43;4.83;;;16.80;99.90;;;;;;10493740;28;20067;-21
2023/03/31 00:20:32;;;;;;;9.68;4.70;;;16.50;99.90;;;;;;10506820;28;20128;-23
2023/03/31 00:25:34;;;;;;;14.65;5.03;;;16.80;99.90;;;;;;10492291;28;20439;-26
2023/03/31 00:30:36;;;;;;;11.57;4.60;;;16.90;99.90;;;;;;10491062;28;20040;-24
2023/03/31 00:35:39;;;;;;;12.80;4.25;;;16.90;99.90;;;;;;10501408;28;20084;-25
2023/03/31 00:40:45;;;;;;;11.90;4.63;;;16.50;99.90;;;;;;10500845;28;20048;-25
2023/03/31 00:45:48;;;;;;;16.10;4.65;;;16.60;99.90;;;;;;10497022;28;20492;-24
2023/03/31 00:50:54;;;;;;;10.77;3.45;;;16.60;99.90;;;;;;10494071;28;20477;-25
2023/03/31 00:56:01;;;;;;;11.02;2.83;;;15.80;99.90;;;;;;10495804;28;20143;-26
2023/03/31 01:01:04;;;;;;;10.63;4.47;;;14.90;99.90;;;;;;10492270;28;20044;-25
2023/03/31 01:06:09;;;;;;;11.70;2.45;;;15.60;99.90;;;;;;10487762;28;20123;-26
2023/03/31 01:11:15;;;;;;;11.93;3.08;;;14.40;99.90;;;;;;10503433;28;20195;-24
2023/03/31 01:16:17;;;;;;;9.45;3.53;;;14.50;99.90;;;;;;10506369;28;20144;-26
2023/03/31 01:21:47;;;;;;;16.85;2.65;;;15.10;99.90;;;;;;10497814;28;20519;-24
2023/03/31 01:27:08;;;;;;;7.82;2.72;;;15.30;99.90;;;;;;10502087;28;20068;-24
2023/03/31 01:32:38;;;;;;;8.63;2.40;;;16.40;99.90;;;;;;10498821;28;20066;-26
2023/03/31 01:38:16;;;;;;;9.80;2.80;;;16.30;99.90;;;;;;10454266;28;20536;-26
2023/03/31 01:43:24;;;;;;;8.18;3.33;;;15.00;99.90;;;;;;10499853;28;20045;-27
2023/03/31 01:48:35;;;;;;;14.40;2.50;;;16.10;99.90;;;;;;10493799;28;20116;-25
2023/03/31 01:53:48;;;;;;;9.55;3.17;;;16.40;99.90;;;;;;10506361;28;20048;-24
2023/03/31 01:58:57;;;;;;;6.32;2.25;;;16.90;99.90;;;;;;10501762;28;20137;-24
2023/03/31 02:04:03;;;;;;;6.03;2.20;;;17.30;99.90;;;;;;10485203;28;20064;-25
2023/03/31 02:09:10;;;;;;;6.13;2.65;;;17.40;98.60;;;;;;10492073;28;20048;-24
2023/03/31 02:14:18;;;;;;;7.75;2.70;;;17.60;98.10;;;;;;10502255;28;20076;-25
2023/03/31 02:19:22;;;;;;;8.55;1.85;;;17.60;97.40;;;;;;10497516;28;20047;-25
2023/03/31 02:24:27;;;;;;;5.10;2.45;;;17.60;97.50;;;;;;10509523;28;20044;-25
2023/03/31 02:29:31;;;;;;;4.07;2.10;;;17.50;98.20;;;;;;10506469;28;20126;-24
2023/03/31 02:34:33;;;;;;;9.52;2.42;;;17.70;97.10;;;;;;10517662;28;20069;-24
2023/03/31 02:39:37;;;;;;;6.77;2.17;;;17.40;98.10;;;;;;10507729;28;20045;-26
2023/03/31 02:44:41;;;;;;;3.70;1.88;;;17.40;98.20;;;;;;10499037;28;20557;-25
2023/03/31 02:49:45;;;;;;;5.15;1.77;;;17.60;96.00;;;;;;10500649;28;20079;-24
2023/03/31 02:55:19;;;;;;;4.28;2.17;;;17.50;98.10;;;;;;10509525;28;20477;-26
2023/03/31 03:00:32;;;;;;;3.88;1.50;;;17.50;96.70;;;;;;10503740;28;20136;-25
2023/03/31 03:05:44;;;;;;;4.63;1.48;;;17.40;98.60;;;;;;10502336;28;20068;-25
2023/03/31 03:10:58;;;;;;;3.80;1.50;;;17.40;98.10;;;;;;10499009;28;20045;-25
2023/03/31 03:16:05;;;;;;;2.38;1.42;;;17.40;96.40;;;;;;10518990;28;20088;-25
2023/03/31 03:21:07;;;;;;;4.20;1.63;;;17.70;97.10;;;;;;10503389;28;20123;-26
2023/03/31 03:26:09;;;;;;;4.75;2.03;;;17.70;96.90;;;;;;10514712;28;20102;-25
2023/03/31 03:31:12;;;;;;;3.50;1.63;;;17.80;96.70;;;;;;10510285;28;20125;-25
2023/03/31 03:36:14;;;;;;;2.88;1.55;;;17.60;97.00;;;;;;10496331;28;20494;-27
2023/03/31 03:41:16;;;;;;;5.27;2.00;;;17.40;97.70;;;;;;10507075;28;20036;-25
2023/03/31 03:46:19;;;;;;;3.80;1.55;;;17.70;97.00;;;;;;10500706;28;20140;-25
2023/03/31 03:51:21;;;;;;;3.42;1.20;;;17.60;96.90;;;;;;10509892;28;20404;-25
2023/03/31 03:56:23;;;;;;;6.70;1.35;;;17.50;97.10;;;;;;10508286;28;20076;-25
2023/03/31 04:01:26;;;;;;;3.65;1.67;;;17.40;96.00;;;;;;10516586;28;20056;-26
2023/03/31 04:06:28;;;;;;;1.75;1.17;;;17.40;96.00;;;;;;10513173;28;20055;-32
2023/03/31 04:11:30;;;;;;;4.90;1.98;;;17.60;97.20;;;;;;10498181;28;20053;-29
2023/03/31 04:16:33;;;;;;;2.90;1.52;;;17.70;96.30;;;;;;10525283;28;20147;-26
2023/03/31 04:21:35;;;;;;;2.80;1.48;;;17.70;96.40;;;;;;10514434;28;20051;-25
2023/03/31 04:26:42;;;;;;;4.10;1.13;;;17.50;97.30;;;;;;10513811;28;20041;-26
2023/03/31 04:31:45;;;;;;;3.70;1.60;;;17.50;96.70;;;;;;10508314;28;20048;-26
2023/03/31 04:36:47;;;;;;;4.75;1.60;;;17.20;98.30;;;;;;10491657;28;20145;-25
2023/03/31 04:41:49;;;;;;;3.58;1.40;;;17.50;96.80;;;;;;10479706;28;20060;-26
2023/03/31 04:46:53;;;;;;;1.92;0.98;;;17.40;97.30;;;;;;10494190;28;20134;-25
2023/03/31 04:51:54;;;;;;;2.25;0.93;;;17.50;96.20;;;;;;10488763;28;20124;-25
2023/03/31 04:56:56;;;;;;;4.23;1.33;;;17.70;95.00;;;;;;10496617;28;20143;-25
2023/03/31 05:01:59;;;;;;;3.93;1.40;;;17.80;96.50;;;;;;10493814;28;20131;-25
2023/03/31 05:07:01;;;;;;;2.63;1.25;;;17.60;96.60;;;;;;10491365;28;20135;-27
2023/03/31 05:12:03;;;;;;;2.80;0.93;;;17.60;97.50;;;;;;10496998;28;20048;-25
2023/03/31 05:17:07;;;;;;;3.75;0.90;;;17.50;98.10;;;;;;10500977;28;20589;-25
2023/03/31 05:22:08;;;;;;;2.38;1.00;;;16.30;99.90;;;;;;10498531;28;20101;-24
2023/03/31 05:27:10;;;;;;;1.57;0.93;;;17.30;97.30;;;;;;10496723;28;20108;-24
2023/03/31 05:32:13;;;;;;;2.70;0.97;;;17.50;98.40;;;;;;10491638;28;20098;-25
2023/03/31 05:37:15;;;;;;;3.42;0.93;;;16.30;99.90;;;;;;10498130;28;20148;-26
2023/03/31 05:42:17;;;;;;;5.10;0.97;;;16.90;99.90;;;;;;10487339;28;20130;-26
2023/03/31 05:47:22;;;;;;;2.63;1.20;;;15.70;99.90;;;;;;10486120;28;20032;-25
2023/03/31 05:52:23;;;;;;;2.40;1.20;;;17.00;99.90;;;;;;10496857;28;20045;-25
2023/03/31 05:57:25;;;;;;;2.53;0.80;;;17.20;99.90;;;;;;10495071;28;20139;-25
2023/03/31 06:15:29;;;;;;;3.78;1.48;;;18.20;94.60;;;;;;10524977;27;1378239;-28
2023/03/31 06:20:31;;;;;;;3.92;0.70;;;17.70;99.10;;;;;;10584740;28;20047;-26
2023/03/31 06:25:33;;;;;;;6.70;1.00;;;18.10;97.60;;;;;;10585037;28;20651;-25
2023/03/31 06:30:36;;;;;;;8.70;1.07;;;18.00;95.70;;;;;;10584567;28;20566;-25
2023/03/31 06:35:39;;;;;;;2.55;1.30;;;17.70;99.40;;;;;;10583605;28;20150;-25
2023/03/31 06:40:42;;;;;;;3.75;1.00;;;17.30;98.20;;;;;;10588532;28;20514;-26
2023/03/31 06:45:45;;;;;;;2.70;0.60;;;17.40;99.50;;;;;;10579771;28;20079;-25
2023/03/31 06:50:47;;;;;;;7.03;0.88;;;18.10;97.70;;;;;;10578851;28;20054;-25
2023/03/31 06:55:49;;;;;;;4.05;0.80;;;18.30;96.90;;;;;;10589534;28;20496;-25
2023/03/31 07:00:52;;;;;;;2.90;0.85;;;18.20;96.40;;;;;;10577399;28;20040;-24
2023/03/31 07:05:55;;;;;;;3.78;1.35;;;17.50;99.60;;;;;;10579822;28;20047;-24
2023/03/31 07:10:59;;;;;;;8.30;2.08;;;17.00;99.90;;;;;;10581539;28;20130;-25
2023/03/31 07:16:03;;;;;;;7.00;1.52;;;15.90;99.90;;;;;;10587675;28;20166;-25
2023/03/31 07:21:06;;;;;;;12.88;2.05;;;16.40;99.90;;;;;;10589711;28;20047;-24
2023/03/31 07:26:08;;;;;;;6.10;1.83;;;15.50;99.90;;;;;;10562031;28;20044;-25
2023/03/31 07:31:15;;;;;;;4.60;1.37;;;17.10;99.90;;;;;;10560392;28;20040;-23
2023/03/31 07:36:17;;;;;;;6.43;1.40;;;16.70;99.90;;;;;;10556016;28;21087;-26
2023/03/31 07:41:21;;;;;;;4.05;1.42;;;17.70;98.60;;;;;;10559402;28;20139;-25
2023/03/31 07:46:26;;;;;;;17.63;2.25;;;17.50;98.60;;;;;;10558615;28;20051;-25
2023/03/31 07:51:28;;;;;;;10.20;1.90;;;15.40;99.90;;;;;;10560540;28;20044;-25
2023/03/31 07:56:30;;;;;;;6.00;1.67;;;16.20;99.90;;;;;;10565534;28;20126;-24
2023/03/31 08:01:33;;;;;;;16.03;2.57;;;14.90;99.90;;;;;;10567624;28;20039;-25
2023/03/31 08:06:35;;;;;;;15.02;2.35;;;15.30;99.90;;;;;;10563025;28;20051;-24
2023/03/31 08:11:40;;;;;;;5.65;2.17;;;15.00;99.90;;;;;;10564619;28;20063;-26
2023/03/31 08:16:50;;;;;;;7.10;1.42;;;16.90;99.90;;;;;;10572811;28;20056;-24
2023/03/31 08:21:52;;;;;;;6.97;1.58;;;17.10;99.90;;;;;;10549607;27;20551;-25
2023/03/31 08:26:54;;;;;;;13.33;2.30;;;17.00;99.90;;;;;;10569969;28;20126;-24
2023/03/31 08:31:58;;;;;;;5.70;1.60;;;16.50;99.90;;;;;;10549679;28;20543;-24
2023/03/31 08:36:59;;;;;;;16.52;2.25;;;17.50;99.30;;;;;;10548807;28;20043;-24
2023/03/31 08:42:06;;;;;;;4.67;1.77;;;16.80;99.90;;;;;;10568246;28;20051;-24
2023/03/31 08:47:15;;;;;;;5.35;1.25;;;17.20;99.20;;;;;;10568104;28;20123;-24
2023/03/31 08:52:22;;;;;;;7.60;1.90;;;17.40;97.90;;;;;;10563851;28;20062;-25
2023/03/31 08:57:27;;;;;;;10.63;2.95;;;16.60;99.90;;;;;;10560153;28;20428;-25
2023/03/31 09:02:37;;;;;;;4.57;1.45;;;17.30;99.90;;;;;;10558920;28;20518;-25
2023/03/31 09:07:50;;;;;;;16.50;2.65;;;17.00;99.90;;;;;;10565225;28;20051;-24
2023/03/31 09:12:58;;;;;;;12.25;2.35;;;16.00;99.90;;;;;;10556841;28;20150;-25
2023/03/31 09:18:07;;;;;;;14.65;3.13;;;16.70;99.90;;;;;;10563925;28;20142;-24
2023/03/31 09:23:22;;;;;;;16.98;2.67;;;15.30;99.90;;;;;;10565596;28;20172;-23
2023/03/31 09:28:29;;;;;;;17.77;1.98;;;14.30;99.90;;;;;;10557287;28;20048;-25
2023/03/31 09:33:33;;;;;;;7.85;1.80;;;16.50;99.90;;;;;;10558205;28;20055;-24
2023/03/31 09:38:35;;;;;;;16.48;2.45;;;17.30;99.90;;;;;;10555939;28;20484;-25
2023/03/31 09:43:37;;;;;;;9.25;2.25;;;16.60;99.90;;;;;;10556096;28;20046;-25
2023/03/31 09:48:45;;;;;;;11.52;2.65;;;16.80;99.90;;;;;;10561604;28;20614;-26
2023/03/31 09:53:51;;;;;;;12.88;2.45;;;15.80;99.90;;;;;;10564956;28;20059;-25
2023/03/31 09:58:54;;;;;;;9.32;2.47;;;15.30;99.90;;;;;;10551178;28;20075;-26
2023/03/31 10:03:57;;;;;;;8.23;1.90;;;16.60;99.90;;;;;;10557806;28;20047;-26
2023/03/31 10:09:02;;;;;;;12.10;2.50;;;15.50;99.90;;;;;;10556581;28;20094;-25
2023/03/31 10:14:07;;;;;;;14.85;3.05;;;15.20;99.90;;;;;;10557849;28;20047;-25
2023/03/31 10:19:19;;;;;;;11.98;2.05;;;14.10;99.90;;;;;;10558326;28;20080;-25
2023/03/31 10:24:21;;;;;;;11.83;2.27;;;13.20;99.90;;;;;;10553516;28;20184;-26
2023/03/31 10:29:31;;;;;;;11.20;2.03;;;13.70;99.90;;;;;;10561305;28;20485;-24
2023/03/31 10:34:39;;;;;;;12.10;2.33;;;15.70;99.90;;;;;;10550454;28;20571;-26
2023/03/31 10:39:42;;;;;;;10.23;1.70;;;14.70;99.90;;;;;;10547846;28;20075;-25
2023/03/31 10:44:43;;;;;;;10.15;2.40;;;14.40;99.90;;;;;;10548490;28;20105;-27
2023/03/31 10:49:49;;;;;;;5.80;2.13;;;15.20;99.90;;;;;;10556137;28;20044;-26
2023/03/31 10:54:55;;;;;;;10.30;2.53;;;16.30;99.90;;;;;;10554172;28;20484;-25
2023/03/31 11:00:11;;;;;;;4.10;1.55;;;16.30;99.90;;;;;;10563283;28;20175;-24
2023/03/31 11:05:22;;;;;;;9.73;1.25;;;16.40;99.90;;;;;;10558564;28;20052;-24
2023/03/31 11:11:05;;;;;;;6.97;2.05;;;16.30;99.90;;;;;;10559330;28;20142;-27
2023/03/31 11:16:18;;;;;;;5.47;1.58;;;17.00;99.90;;;;;;10553067;28;20048;-26
2023/03/31 11:21:25;;;;;;;;;;;13.90;99.90;;;;;;10568146;28;20047;-26
2023/03/31 11:26:33;;;;;;;7.28;1.50;;;12.60;99.90;;;;;;10557737;28;19920;-29
2023/03/31 11:31:47;;;;;;;6.32;1.27;;;12.40;99.90;;;;;;10572466;28;20483;-27
2023/03/31 11:37:12;;;;;;;10.63;1.77;;;12.80;99.90;;;;;;10573546;28;20131;-25
2023/03/31 11:42:16;;;;;;;8.63;2.30;;;13.10;99.90;;;;;;10542942;28;20150;-25
2023/03/31 11:47:21;;;;;;;5.55;1.92;;;13.70;99.90;;;;;;10572344;28;20047;-26
2023/03/31 11:52:29;;;;;;;7.32;1.75;;;13.90;99.90;;;;;;10562908;28;20058;-26
2023/03/31 11:57:36;;;;;;;6.05;1.38;;;13.10;99.90;;;;;;10558932;28;20054;-24
2023/03/31 12:02:44;;;;;;;7.88;1.48;;;13.60;99.90;;;;;;10562386;28;20059;-23
2023/03/31 12:07:56;;;;;;;11.80;1.95;;;13.00;99.90;;;;;;10564069;28;20044;-25
2023/03/31 12:13:05;;;;;;;8.27;2.53;;;13.80;99.90;;;;;;10564942;28;20077;-25
2023/03/31 12:18:13;;;;;;;6.93;2.35;;;16.70;99.90;;;;;;10570744;28;20127;-23
2023/03/31 12:23:20;;;;;;;14.90;2.13;;;17.10;99.90;;;;;;10554507;28;20547;-24
2023/03/31 12:28:23;;;;;;;7.57;1.92;;;16.70;99.90;;;;;;10568177;28;20124;-24
2023/03/31 12:33:29;;;;;;;8.02;1.95;;;15.00;99.90;;;;;;10564061;28;20468;-24
2023/03/31 12:38:46;;;;;;;11.10;2.08;;;14.30;99.90;;;;;;10558758;28;20081;-25
2023/03/31 12:44:14;;;;;;;6.90;2.33;;;12.40;99.90;;;;;;10570057;28;20860;-23
2023/03/31 12:49:30;;;;;;;7.50;1.88;;;12.00;99.90;;;;;;10558819;28;20097;-28
2023/03/31 12:55:08;;;;;;;10.45;3.13;;;11.90;99.90;;;;;;10543276;28;20396;-25
2023/03/31 13:00:21;;;;;;;8.18;1.77;;;12.80;99.90;;;;;;10518129;28;20075;-26
2023/03/31 13:05:47;;;;;;;9.55;2.03;;;12.80;99.90;;;;;;10554056;28;20550;-25
2023/03/31 13:10:57;;;;;;;4.18;1.15;;;13.40;99.90;;;;;;10548475;28;20508;-25
2023/03/31 13:16:02;;;;;;;4.00;1.30;;;12.90;99.90;;;;;;10556534;28;20683;-25
2023/03/31 13:21:06;;;;;;;3.45;1.00;;;12.40;99.90;;;;;;10556726;28;20407;-25
2023/03/31 13:26:37;;;;;;;9.70;1.80;;;12.20;99.90;;;;;;10551329;28;20051;-25
2023/03/31 13:32:16;;;;;;;6.68;1.67;;;12.90;99.90;;;;;;10559804;28;20109;-24
2023/03/31 13:37:43;;;;;;;5.68;1.13;;;12.60;99.90;;;;;;10559370;28;20051;-27
2023/03/31 13:43:09;;;;;;;7.07;1.60;;;12.10;99.90;;;;;;10560265;28;20044;-25
2023/03/31 13:48:30;;;;;;;11.80;2.45;;;11.50;99.90;;;;;;10554122;28;20052;-26
2023/03/31 13:53:47;;;;;;;8.70;3.08;;;12.70;99.90;;;;;;10558721;28;20052;-26
2023/03/31 13:59:15;;;;;;;6.15;1.88;;;12.70;99.90;;;;;;10556564;28;20487;-24
2023/03/31 14:04:30;;;;;;;6.10;1.63;;;13.90;99.90;;;;;;10557181;28;20458;-25
2023/03/31 14:09:38;;;;;;;7.97;1.98;;;14.60;99.90;;;;;;10559273;28;20468;-27
2023/03/31 14:14:41;;;;;;;9.48;2.00;;;14.20;99.90;;;;;;10559641;28;20101;-25
2023/03/31 14:20:09;;;;;;;8.73;1.73;;;12.40;99.90;;;;;;10566502;28;20044;-27
2023/03/31 14:25:16;;;;;;;9.27;1.77;;;12.80;99.90;;;;;;10548366;28;20055;-24
2023/03/31 14:30:30;;;;;;;8.40;1.60;;;12.80;99.90;;;;;;10559838;28;20377;-25
2023/03/31 14:35:37;;;;;;;8.50;1.83;;;12.50;99.90;;;;;;10572498;28;20567;-24
2023/03/31 14:40:46;;;;;;;6.30;1.50;;;11.80;99.90;;;;;;10568590;28;20039;-25
2023/03/31 14:45:57;;;;;;;7.45;1.38;;;12.40;99.90;;;;;;10571849;28;20083;-26
2023/03/31 14:51:02;;;;;;;7.40;2.15;;;12.50;99.90;;;;;;10576434;28;20067;-25
2023/03/31 14:56:07;;;;;;;6.15;2.03;;;14.60;99.90;;;;;;10565481;28;20059;-25
2023/03/31 15:01:16;;;;;;;7.85;1.60;;;14.00;99.90;;;;;;10562162;28;20044;-27
2023/03/31 15:06:18;;;;;;;6.18;1.35;;;13.40;99.90;;;;;;10568579;28;20492;-24
2023/03/31 15:11:20;;;;;;;7.20;1.57;;;12.50;99.90;;;;;;10566830;28;20109;-26
2023/03/31 15:16:31;;;;;;;;;;;14.80;99.90;;;;;;10576004;28;20075;-26
2023/03/31 15:21:38;;;;;;;7.05;1.83;;;13.50;99.90;;;;;;10567310;28;20039;-27
2023/03/31 15:26:43;;;;;;;6.45;2.45;;;15.40;99.90;;;;;;10561649;28;20063;-25
2023/03/31 15:31:47;;;;;;;5.53;1.42;;;14.70;99.90;;;;;;10551211;28;20146;-25
2023/03/31 15:36:49;;;;;;;6.53;2.17;;;14.60;99.90;;;;;;10566994;28;20109;-25
2023/03/31 15:41:52;;;;;;;6.90;2.50;;;13.90;99.90;;;;;;10556453;28;20184;-25
2023/03/31 15:47:06;;;;;;;6.65;3.47;;;13.20;99.90;;;;;;10556314;28;20449;-26
2023/03/31 15:52:20;;;;;;;6.07;1.75;;;13.80;99.90;;;;;;10557373;28;20039;-25
2023/03/31 15:57:32;;;;;;;4.57;1.73;;;12.70;99.90;;;;;;10567500;28;20052;-26
2023/03/31 16:02:43;;;;;;;2.60;1.08;;;13.10;99.90;;;;;;10560846;28;20048;-25
2023/03/31 16:07:45;;;;;;;5.57;1.73;;;13.20;99.90;;;;;;10552400;28;20052;-25
2023/03/31 16:12:52;;;;;;;4.07;1.27;;;12.70;99.90;;;;;;10555165;28;20499;-24
2023/03/31 16:18:00;;;;;;;8.00;1.63;;;13.00;99.90;;;;;;10541828;28;20143;-23
2023/03/31 16:23:02;;;;;;;5.20;1.42;;;12.30;99.90;;;;;;10555796;28;20130;-26
2023/03/31 16:28:04;;;;;;;8.70;2.45;;;12.60;99.90;;;;;;10549325;28;20454;-25
2023/03/31 16:33:09;;;;;;;7.50;2.30;;;12.90;99.90;;;;;;10544804;28;20530;-22
2023/03/31 16:38:15;;;;;;;10.77;1.80;;;13.70;99.90;;;;;;10561173;28;20093;-23
2023/03/31 16:43:18;;;;;;;7.28;1.73;;;11.70;99.90;;;;;;10552725;28;20051;-25
2023/03/31 16:48:23;;;;;;;11.10;2.15;;;12.20;99.90;;;;;;10565892;28;20086;-26
2023/03/31 16:53:28;;;;;;;27.98;4.38;;;12.40;99.90;;;;;;10553607;28;20039;-24
2023/03/31 16:58:30;;;;;;;21.95;4.55;;;11.60;99.90;;;;;;10558963;28;20143;-24
2023/03/31 17:03:35;;;;;;;27.13;4.43;;;11.90;99.90;;;;;;10553451;28;20139;-25
2023/03/31 17:08:38;;;;;;;26.48;4.40;;;11.90;99.90;;;;;;10551751;28;20063;-25
2023/03/31 17:13:42;;;;;;;32.28;4.93;;;11.80;99.90;;;;;;10559644;28;20060;-25
2023/03/31 17:18:45;;;;;;;26.75;5.35;;;11.20;99.90;;;;;;10562129;28;20105;-28
2023/03/31 17:23:48;;;;;;;37.47;4.93;;;11.30;99.90;;;;;;10565378;28;20645;-26
2023/03/31 17:28:50;;;;;;;24.42;5.55;;;11.40;99.90;;;;;;10556757;28;20051;-26
2023/03/31 17:33:54;;;;;;;39.85;5.22;;;11.00;99.90;;;;;;10545928;28;20415;-27
2023/03/31 17:38:58;;;;;;;36.42;4.80;;;10.90;99.90;;;;;;10567337;28;20040;-26
2023/03/31 17:44:01;;;;;;;38.47;5.68;;;11.50;99.90;;;;;;10557201;28;20074;-25
2023/03/31 17:49:04;;;;;;;23.08;3.75;;;10.70;99.90;;;;;;10559193;28;20131;-27
2023/03/31 17:54:06;;;;;;;31.20;4.88;;;11.00;99.90;;;;;;10557602;28;20058;-28
2023/03/31 17:59:09;;;;;;;36.17;4.88;;;11.20;99.90;;;;;;10564281;28;20048;-27
2023/03/31 18:04:13;;;;;;;27.10;5.38;;;11.40;99.90;;;;;;10559595;28;20052;-26
2023/03/31 18:09:15;;;;;;;28.80;5.00;;;11.30;99.90;;;;;;10551329;28;20532;-26
2023/03/31 18:14:17;;;;;;;37.63;5.05;;;11.10;99.90;;;;;;10560916;28;20139;-27
2023/03/31 18:19:21;;;;;;;38.60;5.93;;;11.00;99.90;;;;;;10556292;28;20067;-24
2023/03/31 18:24:23;;;;;;;29.45;4.63;;;11.50;99.90;;;;;;10552892;28;20051;-27
2023/03/31 18:29:25;;;;;;;48.25;6.90;;;10.90;99.90;;;;;;10557149;28;20087;-26
2023/03/31 18:34:29;;;;;;;50.72;8.23;;;10.80;99.90;;;;;;10558733;28;20139;-25
2023/03/31 18:39:30;;;;;;;49.75;7.70;;;10.70;99.90;;;;;;10556042;28;20139;-25
2023/03/31 18:44:34;;;;;;;51.30;6.82;;;10.60;99.90;;;;;;10563605;28;20127;-26
2023/03/31 18:49:37;;;;;;;35.97;5.90;;;10.70;99.90;;;;;;10548847;28;20083;-27
2023/03/31 18:54:40;;;;;;;36.92;6.10;;;11.00;99.90;;;;;;10547577;28;20480;-25
2023/03/31 18:59:42;;;;;;;39.80;6.72;;;11.10;99.90;;;;;;10558194;28;20446;-25
2023/03/31 19:04:46;;;;;;;41.25;6.50;;;11.00;99.90;;;;;;10558725;28;20067;-24
2023/03/31 19:09:47;;;;;;;51.17;7.90;;;10.80;99.90;;;;;;10554592;28;20183;-24
2023/03/31 19:14:49;;;;;;;43.70;6.60;;;10.80;99.90;;;;;;10565256;28;20059;-24
2023/03/31 19:19:53;;;;;;;62.72;8.15;;;11.10;99.90;;;;;;10560165;28;20142;-23
2023/03/31 19:24:54;;;;;;;66.93;7.55;;;10.80;99.90;;;;;;10566941;28;20078;-25
2023/03/31 19:29:56;;;;;;;44.65;6.65;;;10.70;99.90;;;;;;10566171;28;20079;-24
2023/03/31 19:34:59;;;;;;;45.35;6.28;;;10.80;99.90;;;;;;10563854;28;20063;-25
2023/03/31 19:40:03;;;;;;;67.47;8.95;;;11.00;99.90;;;;;;10564820;28;20134;-25
2023/03/31 19:45:06;;;;;;;31.92;4.95;;;10.40;99.90;;;;;;10552704;28;20051;-27
2023/03/31 19:50:11;;;;;;;48.35;7.55;;;11.20;99.90;;;;;;10566534;28;20168;-24
2023/03/31 19:55:14;;;;;;;48.75;7.28;;;11.60;99.90;;;;;;10565223;28;20151;-27
2023/03/31 20:00:18;;;;;;;46.47;6.87;;;10.90;99.90;;;;;;10556125;28;20117;-25
2023/03/31 20:05:21;;;;;;;47.22;6.25;;;10.70;99.90;;;;;;10566287;28;20036;-26
2023/03/31 20:10:23;;;;;;;38.88;5.25;;;11.00;99.90;;;;;;10570857;28;20079;-25
2023/03/31 20:15:25;;;;;;;37.00;6.20;;;10.90;99.90;;;;;;10563179;28;20091;-25
2023/03/31 20:20:28;;;;;;;29.33;5.07;;;10.80;99.90;;;;;;10562609;28;20040;-25
2023/03/31 20:25:30;;;;;;;45.75;4.43;;;10.40;99.90;;;;;;10573673;28;20448;-25
2023/03/31 20:30:32;;;;;;;29.88;4.80;;;10.40;99.90;;;;;;10568992;28;20043;-26
2023/03/31 20:35:35;;;;;;;23.65;3.20;;;10.60;99.90;;;;;;10570707;28;20075;-25
2023/03/31 20:40:37;;;;;;;39.35;5.20;;;10.80;99.90;;;;;;10571438;28;20077;-26
2023/03/31 20:45:40;;;;;;;28.97;4.57;;;10.20;99.90;;;;;;10574037;28;20620;-25
2023/03/31 20:50:44;;;;;;;35.00;4.17;;;10.30;99.90;;;;;;10560571;28;20656;-23
2023/03/31 20:55:46;;;;;;;33.55;6.28;;;10.30;99.90;;;;;;10563388;28;20111;-25
2023/03/31 21:00:48;;;;;;;46.93;5.63;;;10.30;99.90;;;;;;10564184;28;20834;-25
2023/03/31 21:05:51;;;;;;;41.97;6.07;;;10.50;99.90;;;;;;10559605;28;20047;-27
2023/03/31 21:10:57;;;;;;;35.78;4.78;;;10.20;99.90;;;;;;10562199;28;20076;-25
2023/03/31 21:16:03;;;;;;;47.47;5.05;;;10.40;99.90;;;;;;10562311;28;20047;-25
2023/03/31 21:21:08;;;;;;;40.97;5.32;;;10.50;99.90;;;;;;10564512;28;20070;-24
2023/03/31 21:26:13;;;;;;;39.35;5.68;;;10.20;99.90;;;;;;10561745;28;20131;-25
2023/03/31 21:31:17;;;;;;;34.78;5.68;;;10.20;99.90;;;;;;10551671;28;20046;-23
2023/03/31 21:36:21;;;;;;;38.95;4.90;;;9.90;99.90;;;;;;10556750;28;20570;-26
2023/03/31 21:41:25;;;;;;;35.80;3.90;;;10.10;99.90;;;;;;10555229;28;20511;-25
2023/03/31 21:46:29;;;;;;;27.35;3.80;;;9.90;99.90;;;;;;10539108;28;20134;-25
2023/03/31 21:51:32;;;;;;;40.53;5.28;;;10.00;99.90;;;;;;10547186;28;20416;-26
2023/03/31 21:56:34;;;;;;;80.90;10.43;;;10.30;99.90;;;;;;10546992;28;20047;-25
2023/03/31 22:01:36;;;;;;;102.00;13.88;;;10.10;99.90;;;;;;10555746;28;20400;-25
2023/03/31 22:06:39;;;;;;;101.15;15.30;;;9.60;99.90;;;;;;10544830;28;20435;-25
2023/03/31 22:11:41;;;;;;;98.05;13.30;;;9.60;99.90;;;;;;10560427;28;20135;-24
2023/03/31 22:16:43;;;;;;;98.28;11.15;;;9.70;99.90;;;;;;10556700;28;20772;-24
2023/03/31 22:21:48;;;;;;;78.25;10.45;;;9.60;99.90;;;;;;10563551;28;20052;-24
2023/03/31 22:26:50;;;;;;;87.40;10.85;;;9.90;99.90;;;;;;10554874;28;20076;-24
2023/03/31 22:31:52;;;;;;;105.03;14.23;;;9.90;99.90;;;;;;10560298;28;20047;-25
2023/03/31 22:36:55;;;;;;;73.35;9.10;;;9.60;99.90;;;;;;10558314;28;20746;-24
2023/03/31 22:41:57;;;;;;;98.18;13.90;;;9.70;99.90;;;;;;10548370;28;20047;-24
2023/03/31 22:46:59;;;;;;;76.97;10.30;;;9.70;99.90;;;;;;10567731;28;20063;-25
2023/03/31 22:52:03;;;;;;;85.50;11.32;;;9.50;99.90;;;;;;10560451;28;20058;-24
2023/03/31 22:57:05;;;;;;;82.28;11.23;;;9.70;99.90;;;;;;10571699;28;20061;-24
2023/03/31 23:02:06;;;;;;;97.20;13.55;;;9.60;99.90;;;;;;10563224;28;20078;-24
2023/03/31 23:07:10;;;;;;;125.13;13.32;;;9.30;99.90;;;;;;10572686;28;20086;-24
2023/03/31 23:12:12;;;;;;;122.72;15.85;;;9.30;99.90;;;;;;10569516;28;20067;-26
2023/03/31 23:17:14;;;;;;;130.88;15.52;;;9.70;99.90;;;;;;10574591;28;20143;-25
2023/03/31 23:22:17;;;;;;;140.45;14.10;;;9.40;99.90;;;;;;10560541;28;20135;-25
2023/03/31 23:27:19;;;;;;;159.25;15.50;;;9.20;99.90;;;;;;10575624;28;20047;-23
2023/03/31 23:32:21;;;;;;;151.90;15.50;;;9.30;99.90;;;;;;10577766;28;20073;-25
2023/03/31 23:37:26;;;;;;;133.85;13.63;;;9.50;99.90;;;;;;10573428;28;20048;-26
2023/03/31 23:42:28;;;;;;;96.90;11.50;;;9.50;99.90;;;;;;10561326;28;20484;-25
2023/03/31 23:47:31;;;;;;;98.15;12.52;;;9.40;99.90;;;;;;10572806;28;20067;-25
2023/03/31 23:52:35;;;;;;;129.10;14.30;;;9.40;99.90;;;;;;10569924;28;20188;-25
2023/03/31 23:57:36;;;;;;;121.78;11.98;;;9.20;99.90;;;;;;10573792;28;20055;-24
